Time;durP1;ratioP1;P1;durP2;ratioP2;P2;SDS_P1;SDS_P2;PMS_P1;PMS_P2;Temp;Humidity;BMP_temperature;BMP_pressure;BME280_temperature;BME280_humidity;BME280_pressure;Samples;Min_cycle;Max_cycle;Signal;HPM_P1;HPM_P2
2023/01/04 00:01:15;;;;;;;8.38;3.17;;;8.00;99.90;;;;;;5083407;28;20071;-77
2023/01/04 00:03:41;;;;;;;8.60;3.15;;;8.00;99.90;;;;;;5066550;28;20079;-76
2023/01/04 00:06:10;;;;;;;11.60;3.88;;;8.00;99.90;;;;;;5080331;28;20092;-76
2023/01/04 00:08:36;;;;;;;12.38;3.33;;;8.10;99.90;;;;;;5085107;28;20036;-76
2023/01/04 00:11:01;;;;;;;10.90;3.55;;;8.00;99.90;;;;;;5064380;28;20108;-76
2023/01/04 00:13:28;;;;;;;10.27;3.63;;;8.00;99.90;;;;;;5083444;28;20039;-76
2023/01/04 00:15:54;;;;;;;10.57;3.17;;;8.00;99.90;;;;;;5065044;28;20058;-76
2023/01/04 00:18:19;;;;;;;10.80;3.30;;;8.00;99.90;;;;;;5063649;28;20119;-76
2023/01/04 00:20:45;;;;;;;9.10;3.40;;;8.00;99.90;;;;;;5076127;28;20137;-76
2023/01/04 00:23:10;;;;;;;10.93;3.05;;;8.00;99.90;;;;;;5078192;28;20046;-76
2023/01/04 00:25:39;;;;;;;9.02;2.63;;;8.00;99.90;;;;;;5090416;28;20376;-76
2023/01/04 00:28:05;;;;;;;11.80;3.35;;;8.00;99.90;;;;;;5088106;28;20040;-77
2023/01/04 00:30:31;;;;;;;9.60;3.50;;;8.00;99.90;;;;;;5086606;28;20048;-75
2023/01/04 00:32:57;;;;;;;9.00;3.15;;;8.00;99.90;;;;;;5070897;28;20750;-75
2023/01/04 00:35:23;;;;;;;9.75;3.03;;;8.00;99.90;;;;;;5086646;28;20051;-76
2023/01/04 00:37:49;;;;;;;10.25;3.08;;;8.00;99.90;;;;;;5088298;28;20044;-76
2023/01/04 00:40:14;;;;;;;10.77;3.05;;;8.00;99.90;;;;;;5089434;28;20060;-76
2023/01/04 00:42:40;;;;;;;9.45;3.28;;;8.10;99.90;;;;;;5088335;28;20357;-76
2023/01/04 00:45:07;;;;;;;8.80;3.15;;;8.10;99.90;;;;;;5066132;28;20047;-76
2023/01/04 00:47:32;;;;;;;9.85;3.58;;;8.00;99.90;;;;;;5086421;28;20048;-76
2023/01/04 00:49:58;;;;;;;10.82;3.08;;;8.10;99.90;;;;;;5062694;28;20047;-76
2023/01/04 00:52:24;;;;;;;5.80;2.90;;;8.10;99.90;;;;;;5086996;28;20487;-77
2023/01/04 00:54:49;;;;;;;6.10;3.20;;;8.10;99.90;;;;;;5087482;28;20399;-76
2023/01/04 00:57:15;;;;;;;6.13;3.00;;;8.10;99.90;;;;;;5084679;28;20119;-77
2023/01/04 00:59:41;;;;;;;8.55;2.70;;;8.10;99.90;;;;;;5087820;28;20040;-76
2023/01/04 01:02:06;;;;;;;10.50;3.10;;;8.10;99.90;;;;;;5085514;28;20032;-76
2023/01/04 01:04:32;;;;;;;9.27;3.30;;;8.10;99.90;;;;;;5084206;28;20047;-74
2023/01/04 01:06:57;;;;;;;11.90;4.15;;;8.00;99.90;;;;;;5085687;28;20621;-77
2023/01/04 01:09:23;;;;;;;7.82;3.63;;;8.00;99.90;;;;;;5088430;28;20044;-77
2023/01/04 01:11:50;;;;;;;13.57;3.58;;;8.00;99.90;;;;;;5063330;28;20044;-77
2023/01/04 01:14:19;;;;;;;11.68;3.28;;;8.10;99.90;;;;;;5080213;28;20056;-77
2023/01/04 01:16:45;;;;;;;11.63;3.33;;;8.10;99.90;;;;;;5086694;28;20451;-77
2023/01/04 01:19:11;;;;;;;9.88;3.08;;;8.00;99.90;;;;;;5085512;28;20036;-76
2023/01/04 01:21:37;;;;;;;10.07;3.40;;;8.00;99.90;;;;;;5063616;28;20051;-77
2023/01/04 01:24:03;;;;;;;9.70;3.30;;;8.00;99.90;;;;;;5084427;28;20214;-76
2023/01/04 01:26:29;;;;;;;10.05;3.13;;;8.00;99.90;;;;;;5087771;28;20382;-77
2023/01/04 01:28:55;;;;;;;10.90;3.50;;;8.00;99.90;;;;;;5065876;28;20044;-77
2023/01/04 01:31:23;;;;;;;8.93;2.95;;;8.00;99.90;;;;;;5085397;28;20574;-77
2023/01/04 01:33:51;;;;;;;11.18;3.33;;;8.00;99.90;;;;;;5081216;28;20090;-76
2023/01/04 01:36:18;;;;;;;8.07;3.60;;;8.00;99.90;;;;;;5067092;28;20051;-77
2023/01/04 01:38:44;;;;;;;8.90;3.30;;;8.00;99.90;;;;;;5085768;28;20140;-76
2023/01/04 01:41:20;;;;;;;9.70;3.22;;;8.00;99.90;;;;;;5084949;28;20123;-77
2023/01/04 01:44:05;;;;;;;10.10;3.33;;;8.10;99.90;;;;;;5087023;28;20089;-77
2023/01/04 01:46:45;;;;;;;9.75;3.83;;;8.00;99.90;;;;;;5086786;28;20052;-77
2023/01/04 01:49:38;;;;;;;9.27;3.60;;;8.00;99.90;;;;;;5056403;28;20460;-77
2023/01/04 01:52:21;;;;;;;9.70;3.90;;;7.90;99.90;;;;;;5081015;28;20083;-77
2023/01/04 01:54:56;;;;;;;9.15;3.63;;;8.00;99.90;;;;;;5086987;28;20089;-77
2023/01/04 01:57:25;;;;;;;10.13;3.42;;;8.00;99.90;;;;;;5086187;28;20044;-77
2023/01/04 01:59:54;;;;;;;10.63;3.70;;;8.00;99.90;;;;;;5086203;28;20052;-77
2023/01/04 02:02:20;;;;;;;7.47;3.80;;;8.00;99.90;;;;;;5081716;28;20055;-77
2023/01/04 02:04:49;;;;;;;8.15;3.75;;;7.90;99.90;;;;;;5065579;28;20131;-77
2023/01/04 02:07:19;;;;;;;9.60;4.00;;;8.00;99.90;;;;;;5086090;28;20123;-77
2023/01/04 02:09:45;;;;;;;8.70;3.67;;;8.00;99.90;;;;;;5082367;28;20483;-76
2023/01/04 02:12:12;;;;;;;6.60;3.97;;;8.00;99.90;;;;;;5082421;28;20047;-76
2023/01/04 02:14:40;;;;;;;7.45;3.78;;;8.10;99.90;;;;;;5085725;28;20044;-77
2023/01/04 02:17:27;;;;;;;7.25;3.55;;;8.10;99.90;;;;;;5079085;28;20118;-77
2023/01/04 02:20:01;;;;;;;7.35;3.72;;;8.00;99.90;;;;;;5078172;28;21811;-77
2023/01/04 02:23:01;;;;;;;6.78;3.38;;;8.00;99.90;;;;;;5079593;28;20114;-76
2023/01/04 02:26:00;;;;;;;10.15;4.10;;;8.10;99.90;;;;;;5081475;28;20101;-76
2023/01/04 02:29:06;;;;;;;9.48;4.20;;;8.10;99.90;;;;;;5085119;28;20108;-77
2023/01/04 02:31:50;;;;;;;8.10;3.88;;;8.00;99.90;;;;;;5085361;28;20036;-77
2023/01/04 02:34:30;;;;;;;9.77;3.95;;;8.00;99.90;;;;;;5077305;28;20140;-76
2023/01/04 02:37:27;;;;;;;6.60;4.00;;;8.10;99.90;;;;;;5097070;27;20127;-76
2023/01/04 02:40:19;;;;;;;7.00;4.20;;;8.10;99.90;;;;;;5062149;28;20044;-77
2023/01/04 02:45:45;;;;;;;8.70;3.70;;;8.10;99.90;;;;;;5067550;28;20044;-76
2023/01/04 02:50:57;;;;;;;7.32;3.80;;;8.10;99.90;;;;;;5066305;28;20527;-77
2023/01/04 02:53:33;;;;;;;6.13;3.53;;;8.10;99.90;;;;;;5066577;28;20052;-77
2023/01/04 02:56:36;;;;;;;7.43;3.70;;;8.10;99.90;;;;;;5079425;28;20052;-76
2023/01/04 02:59:31;;;;;;;4.68;3.28;;;8.10;99.90;;;;;;5076024;28;20067;-76
2023/01/04 03:08:46;;;;;;;5.70;3.50;;;8.20;99.90;;;;;;5079977;28;20048;-77
2023/01/04 03:14:23;;;;;;;5.85;3.30;;;8.20;99.90;;;;;;5045130;28;20740;-77
2023/01/04 03:16:50;;;;;;;5.60;3.45;;;8.30;99.90;;;;;;5082845;28;20044;-76
2023/01/04 03:19:50;;;;;;;6.57;3.30;;;8.30;99.90;;;;;;5083766;28;20035;-76
2023/01/04 03:36:28;;;;;;;7.35;4.30;;;8.40;99.90;;;;;;5084945;28;20127;-76
2023/01/04 03:48:27;;;;;;;9.90;4.72;;;8.60;99.90;;;;;;5088838;28;20044;-76
2023/01/04 03:51:21;;;;;;;5.93;4.60;;;8.60;99.90;;;;;;5081794;28;20050;-76
2023/01/04 03:53:49;;;;;;;8.25;4.85;;;8.70;99.90;;;;;;5069465;28;20575;-76
2023/01/04 03:56:17;;;;;;;6.10;4.70;;;8.70;99.90;;;;;;5083896;28;20079;-76
2023/01/04 03:58:43;;;;;;;;;;;8.70;99.90;;;;;;5071210;28;20177;-76
2023/01/04 04:01:09;;;;;;;5.43;4.35;;;8.70;99.90;;;;;;5087483;28;19963;-76
2023/01/04 04:09:03;;;;;;;5.95;4.18;;;8.80;99.90;;;;;;5084801;28;20130;-76
2023/01/04 04:11:29;;;;;;;6.55;4.60;;;8.80;99.90;;;;;;5075267;28;20067;-76
2023/01/04 04:13:55;;;;;;;5.30;4.38;;;8.80;99.90;;;;;;5087059;28;20084;-76
2023/01/04 04:16:21;;;;;;;7.15;4.68;;;8.80;99.90;;;;;;5087654;28;20036;-76
2023/01/04 04:18:47;;;;;;;7.70;4.55;;;8.90;99.90;;;;;;5068459;28;20096;-77
2023/01/04 04:21:13;;;;;;;9.88;4.90;;;8.90;99.90;;;;;;5069787;28;20139;-76
2023/01/04 04:23:39;;;;;;;5.40;4.55;;;8.90;99.90;;;;;;5056166;28;20390;-76
2023/01/04 04:26:04;;;;;;;7.57;4.75;;;8.90;99.90;;;;;;5071602;28;20147;-76
2023/01/04 04:28:30;;;;;;;5.63;4.70;;;8.90;99.90;;;;;;5086103;28;20036;-76
2023/01/04 04:30:56;;;;;;;6.63;4.80;;;8.90;99.90;;;;;;5084545;28;20506;-76
2023/01/04 04:33:21;;;;;;;6.53;4.70;;;8.90;99.90;;;;;;5083525;28;20044;-77
2023/01/04 04:35:51;;;;;;;5.05;4.55;;;9.00;99.90;;;;;;5084242;28;20427;-76
2023/01/04 04:38:17;;;;;;;5.10;4.30;;;9.00;99.90;;;;;;5084962;28;20032;-77
2023/01/04 04:43:27;;;;;;;5.97;4.40;;;9.00;99.90;;;;;;5061958;28;20035;-76
2023/01/04 04:45:53;;;;;;;5.45;4.55;;;9.10;99.90;;;;;;5086561;28;20398;-76
2023/01/04 04:48:19;;;;;;;6.45;4.50;;;9.10;99.90;;;;;;5088560;28;20518;-76
2023/01/04 04:50:44;;;;;;;6.15;4.45;;;9.20;99.90;;;;;;5088516;28;20050;-76
2023/01/04 04:53:10;;;;;;;4.72;4.20;;;9.10;99.90;;;;;;5084669;28;20052;-76
2023/01/04 04:55:36;;;;;;;4.95;4.45;;;9.20;99.90;;;;;;5068835;28;20050;-76
2023/01/04 04:58:01;;;;;;;6.43;4.50;;;9.20;99.90;;;;;;5085110;28;20072;-76
2023/01/04 05:00:27;;;;;;;6.50;4.90;;;9.20;99.90;;;;;;5069175;28;20040;-76
2023/01/04 05:02:52;;;;;;;5.22;4.25;;;9.20;99.90;;;;;;5067251;28;20098;-77
2023/01/04 05:05:18;;;;;;;5.05;4.50;;;9.30;99.90;;;;;;5070741;28;20458;-77
2023/01/04 05:07:44;;;;;;;6.53;4.90;;;9.30;99.90;;;;;;5088083;28;20059;-77
2023/01/04 05:10:09;;;;;;;6.20;5.22;;;9.30;99.90;;;;;;5085845;28;20039;-76
2023/01/04 05:15:19;;;;;;;6.75;5.43;;;9.30;99.90;;;;;;5069459;28;20044;-77
2023/01/04 05:17:45;;;;;;;6.68;5.68;;;9.30;99.90;;;;;;5065784;28;20137;-77
2023/01/04 05:20:10;;;;;;;6.40;5.70;;;9.40;99.90;;;;;;5064387;28;20100;-76
2023/01/04 05:22:36;;;;;;;7.68;5.70;;;9.30;99.90;;;;;;5064103;28;20535;-77
2023/01/04 05:25:02;;;;;;;6.90;5.90;;;9.30;99.90;;;;;;5087306;28;20040;-76
2023/01/04 05:27:27;;;;;;;7.80;6.13;;;9.30;99.90;;;;;;5087975;28;20160;-77
2023/01/04 05:32:37;;;;;;;7.20;6.50;;;9.40;99.90;;;;;;5062059;28;20060;-76
2023/01/04 05:35:03;;;;;;;7.45;6.35;;;9.40;99.90;;;;;;5085427;28;20540;-77
2023/01/04 05:37:28;;;;;;;7.72;7.03;;;9.40;99.90;;;;;;5086287;28;20119;-76
2023/01/04 05:39:54;;;;;;;7.90;7.13;;;9.40;99.90;;;;;;5085879;28;20051;-77
2023/01/04 05:42:26;;;;;;;7.63;6.93;;;9.40;99.90;;;;;;5068148;28;20407;-77
2023/01/04 05:44:53;;;;;;;9.52;7.10;;;9.40;99.90;;;;;;5085586;28;20036;-77
2023/01/04 05:47:19;;;;;;;8.57;7.75;;;9.50;99.90;;;;;;5081172;28;20036;-77
2023/01/04 05:49:45;;;;;;;8.75;7.95;;;9.50;99.90;;;;;;5079830;28;20077;-77
2023/01/04 05:52:10;;;;;;;10.20;7.90;;;9.50;99.90;;;;;;5056280;28;20503;-77
2023/01/04 05:54:36;;;;;;;8.23;7.43;;;9.50;99.90;;;;;;5064727;28;20041;-77
2023/01/04 05:57:02;;;;;;;9.23;8.10;;;9.60;99.90;;;;;;5066552;28;20044;-77
2023/01/04 05:59:27;;;;;;;9.38;8.23;;;9.60;99.90;;;;;;5067005;28;20043;-77
2023/01/04 06:01:53;;;;;;;9.10;8.13;;;9.60;99.90;;;;;;5059965;28;20054;-77
2023/01/04 06:04:19;;;;;;;10.02;9.00;;;9.60;99.90;;;;;;5061293;28;20135;-77
2023/01/04 06:06:45;;;;;;;9.32;8.27;;;9.60;99.90;;;;;;5060752;28;20432;-77
2023/01/04 06:09:10;;;;;;;9.93;8.60;;;9.60;99.90;;;;;;5067321;28;20043;-76
2023/01/04 06:11:36;;;;;;;9.70;8.10;;;9.70;99.90;;;;;;5064594;28;20531;-77
2023/01/04 06:14:01;;;;;;;10.82;8.50;;;9.60;99.90;;;;;;5094753;28;20036;-77
2023/01/04 06:16:27;;;;;;;9.93;8.93;;;9.70;99.90;;;;;;5062545;28;20139;-77
2023/01/04 06:18:53;;;;;;;9.75;8.75;;;9.70;99.90;;;;;;5059197;28;20055;-75
2023/01/04 06:21:18;;;;;;;10.15;9.00;;;9.70;99.90;;;;;;5053746;28;20113;-76
2023/01/04 06:23:44;;;;;;;9.73;8.55;;;9.70;99.90;;;;;;5055678;28;20419;-75
2023/01/04 06:26:10;;;;;;;10.70;8.73;;;9.80;99.90;;;;;;5059189;28;20037;-76
2023/01/04 06:28:36;;;;;;;9.85;8.85;;;9.80;99.90;;;;;;5055622;28;20127;-76
2023/01/04 06:31:04;;;;;;;9.95;8.60;;;9.80;99.90;;;;;;5057942;28;20859;-75
2023/01/04 06:33:31;;;;;;;10.30;9.20;;;9.80;99.90;;;;;;5060347;28;20037;-77
2023/01/04 06:35:56;;;;;;;10.73;9.03;;;9.70;99.90;;;;;;5061424;28;20044;-76
2023/01/04 06:38:22;;;;;;;9.65;8.60;;;9.80;99.90;;;;;;5095601;28;20203;-76
2023/01/04 06:40:48;;;;;;;10.18;8.77;;;9.80;99.90;;;;;;5067057;28;20079;-75
2023/01/04 06:43:14;;;;;;;9.35;8.07;;;9.90;99.90;;;;;;5050154;28;20143;-76
2023/01/04 06:45:40;;;;;;;10.50;7.75;;;9.80;99.90;;;;;;5055426;28;20646;-75
2023/01/04 06:48:06;;;;;;;9.18;7.07;;;9.90;99.90;;;;;;5062373;28;20064;-75
2023/01/04 06:50:32;;;;;;;8.60;6.63;;;9.90;99.90;;;;;;5062813;28;20455;-75
2023/01/04 06:52:57;;;;;;;7.03;5.68;;;9.90;99.90;;;;;;5044599;28;20061;-75
2023/01/04 06:55:23;;;;;;;5.70;4.80;;;9.80;99.90;;;;;;5076782;28;20065;-75
2023/01/04 06:57:49;;;;;;;6.95;4.97;;;9.90;99.90;;;;;;5039430;28;20569;-75
2023/01/04 07:00:15;;;;;;;7.05;5.07;;;9.80;99.90;;;;;;5036633;28;20141;-75
2023/01/04 07:02:41;;;;;;;6.63;5.28;;;9.90;99.90;;;;;;5038958;28;20127;-75
2023/01/04 07:05:07;;;;;;;5.72;5.18;;;9.90;99.90;;;;;;5044833;28;20620;-75
2023/01/04 07:07:34;;;;;;;5.50;4.75;;;9.90;99.90;;;;;;5045765;28;20401;-75
2023/01/04 07:10:01;;;;;;;5.38;4.88;;;9.90;99.90;;;;;;5045103;28;20484;-75
2023/01/04 07:12:26;;;;;;;5.20;4.70;;;9.90;99.90;;;;;;5048065;28;20052;-75
2023/01/04 07:14:52;;;;;;;6.65;4.72;;;10.00;99.90;;;;;;5039973;28;20064;-75
2023/01/04 07:17:18;;;;;;;5.22;4.50;;;10.00;99.90;;;;;;5037743;28;20042;-75
2023/01/04 07:19:44;;;;;;;5.15;4.65;;;10.00;99.90;;;;;;5044180;28;20556;-75
2023/01/04 07:22:10;;;;;;;5.20;4.68;;;10.00;99.90;;;;;;5048062;28;20037;-75
2023/01/04 07:24:36;;;;;;;5.15;4.68;;;10.00;99.90;;;;;;5047937;28;20106;-75
2023/01/04 07:27:02;;;;;;;5.60;4.63;;;10.00;99.90;;;;;;5051759;28;20061;-75
2023/01/04 07:29:28;;;;;;;4.78;4.28;;;10.00;99.90;;;;;;5047916;28;20417;-75
2023/01/04 07:31:54;;;;;;;6.18;4.22;;;10.00;99.90;;;;;;5039472;28;20067;-75
2023/01/04 07:34:22;;;;;;;4.63;4.10;;;10.10;99.90;;;;;;5042845;28;20048;-75
2023/01/04 07:36:49;;;;;;;4.53;4.00;;;10.10;99.90;;;;;;5048515;28;20103;-75
2023/01/04 07:39:16;;;;;;;5.73;4.27;;;10.10;99.90;;;;;;5047514;28;20044;-75
2023/01/04 07:41:43;;;;;;;5.07;4.20;;;10.10;99.90;;;;;;5049997;28;20500;-74
2023/01/04 07:44:10;;;;;;;6.05;4.30;;;10.10;99.90;;;;;;5054447;28;20037;-74
2023/01/04 07:46:36;;;;;;;5.15;4.15;;;10.10;99.90;;;;;;5064855;28;20037;-74
2023/01/04 07:49:03;;;;;;;4.38;3.97;;;10.10;99.90;;;;;;5047386;28;20111;-75
2023/01/04 07:51:31;;;;;;;5.00;4.50;;;10.10;99.90;;;;;;5041419;28;20068;-73
2023/01/04 07:53:57;;;;;;;5.03;4.50;;;10.10;99.90;;;;;;5045804;28;20088;-72
2023/01/04 07:56:23;;;;;;;4.82;4.20;;;10.10;99.90;;;;;;5050398;28;21179;-77
2023/01/04 07:58:49;;;;;;;6.03;4.65;;;10.10;99.90;;;;;;5050602;28;20087;-73
2023/01/04 08:01:19;;;;;;;5.15;4.47;;;10.10;99.90;;;;;;5046601;28;20106;-71
2023/01/04 08:03:46;;;;;;;5.68;4.53;;;10.20;99.90;;;;;;5047829;28;20056;-72
2023/01/04 08:06:13;;;;;;;;;;;10.20;99.90;;;;;;5050403;28;20370;-74
2023/01/04 08:08:39;;;;;;;;;;;10.20;99.90;;;;;;5050291;28;19932;-73
2023/01/04 08:11:13;;;;;;;5.53;4.70;;;10.20;99.90;;;;;;5049029;28;19924;-74
2023/01/04 08:13:40;;;;;;;6.18;4.85;;;10.20;99.90;;;;;;5050919;28;20052;-75
2023/01/04 08:16:07;;;;;;;6.05;5.40;;;10.20;99.90;;;;;;5049702;28;20053;-74
2023/01/04 08:18:34;;;;;;;5.82;5.10;;;10.20;99.90;;;;;;5044795;28;20045;-75
2023/01/04 08:21:07;;;;;;;7.32;5.32;;;10.30;99.90;;;;;;5049019;28;20055;-75
2023/01/04 08:23:36;;;;;;;6.55;5.57;;;10.30;99.90;;;;;;5049434;28;20036;-74
2023/01/04 08:26:09;;;;;;;8.80;5.80;;;10.30;99.90;;;;;;5050227;28;20068;-74
2023/01/04 08:28:35;;;;;;;8.48;6.70;;;10.30;99.90;;;;;;5047360;28;20049;-74
2023/01/04 08:31:10;;;;;;;7.28;6.28;;;10.30;99.90;;;;;;5046386;28;20059;-74
2023/01/04 08:33:37;;;;;;;7.53;6.35;;;10.30;99.90;;;;;;5041576;28;20388;-75
2023/01/04 08:36:07;;;;;;;;;;;10.40;99.90;;;;;;5044156;28;20074;-74
2023/01/04 08:38:33;;;;;;;9.30;7.60;;;10.40;99.90;;;;;;5048730;28;19921;-74
2023/01/04 08:40:59;;;;;;;10.60;7.22;;;10.40;99.90;;;;;;5046116;28;20037;-74
2023/01/04 08:43:24;;;;;;;8.60;7.35;;;10.40;99.90;;;;;;5050115;28;20104;-74
2023/01/04 08:45:50;;;;;;;8.00;7.20;;;10.50;99.90;;;;;;5045590;28;20040;-77
2023/01/04 08:48:15;;;;;;;8.55;7.65;;;10.50;99.90;;;;;;5047761;28;20037;-77
2023/01/04 08:50:41;;;;;;;12.23;9.68;;;10.50;99.90;;;;;;5039229;28;20611;-78
2023/01/04 08:53:07;;;;;;;9.85;8.32;;;10.50;99.90;;;;;;5080686;28;20044;-76
2023/01/04 08:55:32;;;;;;;11.80;8.05;;;10.60;99.90;;;;;;5086381;28;20080;-74
2023/01/04 08:58:02;;;;;;;8.88;7.85;;;10.60;99.90;;;;;;5071944;28;20064;-74
2023/01/04 09:00:28;;;;;;;10.30;8.23;;;10.50;99.90;;;;;;5088614;28;20047;-74
2023/01/04 09:02:54;;;;;;;9.93;8.25;;;10.60;99.90;;;;;;5102915;28;20514;-77
2023/01/04 09:05:20;;;;;;;10.18;7.90;;;10.60;99.90;;;;;;5085972;28;20044;-76
2023/01/04 09:07:45;;;;;;;8.95;8.00;;;10.60;99.90;;;;;;5084176;28;20040;-75
2023/01/04 09:10:11;;;;;;;8.35;7.07;;;10.60;99.90;;;;;;5070015;28;20036;-74
2023/01/04 09:12:37;;;;;;;9.90;7.55;;;10.60;99.90;;;;;;5080905;28;20035;-74
2023/01/04 09:15:03;;;;;;;9.88;7.90;;;10.60;99.90;;;;;;5065680;28;20051;-74
2023/01/04 09:17:28;;;;;;;7.57;6.78;;;10.70;99.90;;;;;;5087157;28;20043;-74
2023/01/04 09:19:54;;;;;;;8.93;6.97;;;10.60;99.90;;;;;;5079019;28;20111;-74
2023/01/04 09:22:20;;;;;;;8.90;6.90;;;10.70;99.90;;;;;;5101682;28;20036;-74
2023/01/04 09:24:45;;;;;;;7.75;6.82;;;10.70;99.90;;;;;;5088531;28;20484;-74
2023/01/04 09:27:11;;;;;;;8.57;6.60;;;10.70;99.90;;;;;;5091981;28;20047;-74
2023/01/04 09:29:36;;;;;;;7.75;6.03;;;10.70;99.90;;;;;;5067011;28;20105;-78
2023/01/04 09:32:02;;;;;;;6.43;5.65;;;10.70;99.90;;;;;;5081620;28;20043;-85
2023/01/04 09:34:28;;;;;;;8.10;5.38;;;10.70;99.90;;;;;;5074864;28;20060;-73
2023/01/04 09:36:53;;;;;;;7.43;5.55;;;10.80;99.90;;;;;;5084481;28;20093;-73
2023/01/04 09:39:20;;;;;;;7.75;5.43;;;10.70;99.90;;;;;;5068662;28;20068;-74
2023/01/04 09:41:59;;;;;;;6.43;4.93;;;10.80;99.90;;;;;;5066779;28;20062;-73
2023/01/04 09:44:28;;;;;;;5.30;4.63;;;10.80;99.90;;;;;;5097276;27;20131;-77
2023/01/04 09:47:10;;;;;;;5.97;4.80;;;10.80;99.90;;;;;;5088493;28;20048;-74
2023/01/04 09:50:02;;;;;;;4.95;4.45;;;10.80;99.90;;;;;;5094049;28;20713;-75
2023/01/04 09:52:39;;;;;;;5.53;4.85;;;10.90;99.90;;;;;;5084664;28;20052;-74
2023/01/04 09:55:29;;;;;;;5.55;4.50;;;10.80;99.90;;;;;;5067861;28;20506;-74
2023/01/04 09:58:01;;;;;;;5.70;4.60;;;10.90;99.90;;;;;;5060646;28;20048;-72
2023/01/04 10:00:30;;;;;;;4.88;4.38;;;10.90;99.90;;;;;;5061042;28;20044;-72
2023/01/04 10:03:05;;;;;;;4.93;4.43;;;10.90;99.90;;;;;;5064378;28;20059;-73
2023/01/04 10:05:33;;;;;;;4.63;3.90;;;10.90;99.90;;;;;;5087664;28;20044;-73
2023/01/04 10:08:00;;;;;;;5.07;4.20;;;10.90;99.90;;;;;;5089505;28;20040;-72
2023/01/04 10:11:07;;;;;;;4.72;3.88;;;10.90;99.90;;;;;;5078135;28;20052;-71
2023/01/04 10:13:51;;;;;;;4.85;4.07;;;11.00;99.90;;;;;;5072926;28;20048;-71
2023/01/04 10:16:39;;;;;;;5.53;4.40;;;11.00;99.90;;;;;;5085408;28;20035;-72
2023/01/04 10:19:29;;;;;;;4.20;3.80;;;11.00;99.90;;;;;;5081607;28;20549;-73
2023/01/04 10:22:14;;;;;;;4.75;4.10;;;11.00;99.90;;;;;;5050299;28;20047;-72
2023/01/04 10:24:48;;;;;;;4.20;3.80;;;11.00;99.90;;;;;;5066755;28;20055;-73
2023/01/04 10:27:26;;;;;;;5.78;4.07;;;11.00;99.90;;;;;;5068459;28;20035;-74
2023/01/04 10:29:58;;;;;;;10.60;6.65;;;11.00;99.90;;;;;;5068424;28;20048;-75
2023/01/04 10:32:56;;;;;;;4.65;3.80;;;11.00;99.90;;;;;;5050144;28;20043;-75
2023/01/04 10:35:26;;;;;;;5.30;3.58;;;11.00;99.90;;;;;;5066998;28;20450;-75
2023/01/04 10:37:57;;;;;;;5.18;4.30;;;11.10;99.90;;;;;;5070693;28;20068;-75
2023/01/04 10:40:26;;;;;;;3.45;3.13;;;11.00;99.90;;;;;;5086062;28;20056;-75
2023/01/04 10:43:00;;;;;;;3.20;2.90;;;11.10;99.90;;;;;;5084345;28;20063;-75
2023/01/04 10:45:35;;;;;;;3.58;3.17;;;11.10;99.90;;;;;;5082604;28;20748;-74
2023/01/04 10:48:21;;;;;;;3.22;2.70;;;11.10;99.90;;;;;;5064147;28;20123;-78
2023/01/04 10:50:58;;;;;;;3.97;2.70;;;11.10;99.90;;;;;;5062429;28;20085;-72
2023/01/04 10:53:34;;;;;;;3.00;2.70;;;11.10;99.90;;;;;;5064553;28;20101;-75
2023/01/04 10:56:28;;;;;;;2.35;2.15;;;11.20;99.90;;;;;;5082883;28;20036;-76
2023/01/04 10:59:26;;;;;;;2.88;2.30;;;11.10;99.90;;;;;;5081745;28;20047;-77
2023/01/04 11:02:01;;;;;;;2.42;2.22;;;11.20;99.90;;;;;;5060735;28;20506;-73
2023/01/04 11:04:26;;;;;;;2.67;2.45;;;11.20;99.90;;;;;;5080740;28;20060;-70
2023/01/04 11:07:01;;;;;;;2.40;2.20;;;11.20;99.90;;;;;;5080631;28;20063;-72
2023/01/04 11:09:35;;;;;;;2.20;2.00;;;11.30;99.90;;;;;;5065709;28;20052;-73
2023/01/04 11:12:01;;;;;;;2.42;2.22;;;11.30;99.90;;;;;;5064811;28;20466;-73
2023/01/04 11:14:27;;;;;;;2.60;2.00;;;11.30;99.90;;;;;;5065548;28;20044;-73
2023/01/04 11:16:59;;;;;;;2.00;1.80;;;11.20;99.90;;;;;;5081215;28;20109;-72
2023/01/04 11:19:27;;;;;;;1.80;1.70;;;11.30;99.90;;;;;;5085381;28;20040;-72
2023/01/04 11:21:59;;;;;;;1.77;1.60;;;11.30;99.90;;;;;;5064730;28;20122;-72
2023/01/04 11:24:29;;;;;;;2.13;1.50;;;11.30;99.90;;;;;;5063516;28;20127;-74
2023/01/04 11:26:58;;;;;;;2.45;1.55;;;11.30;99.90;;;;;;5086247;28;20717;-76
2023/01/04 11:29:48;;;;;;;1.52;1.38;;;11.40;99.90;;;;;;5068009;28;20127;-74
2023/01/04 11:32:38;;;;;;;1.60;1.50;;;11.30;99.90;;;;;;5065772;28;20116;-75
2023/01/04 11:35:05;;;;;;;1.65;1.55;;;11.40;99.90;;;;;;5069468;28;20118;-73
2023/01/04 11:37:36;;;;;;;2.55;1.70;;;11.40;99.90;;;;;;5083533;28;20039;-76
2023/01/04 11:40:17;;;;;;;1.60;1.50;;;11.40;99.90;;;;;;5078949;28;20044;-74
2023/01/04 11:42:44;;;;;;;3.67;2.33;;;11.40;99.90;;;;;;5084032;28;20110;-79
2023/01/04 11:45:25;;;;;;;3.60;2.40;;;11.40;99.90;;;;;;5068860;28;20048;-76
2023/01/04 11:47:54;;;;;;;5.95;2.90;;;11.50;99.90;;;;;;5083163;28;20048;-73
2023/01/04 11:50:44;;;;;;;5.03;3.08;;;11.50;99.90;;;;;;5080983;28;20152;-74
2023/01/04 11:53:22;;;;;;;4.15;3.00;;;11.60;99.90;;;;;;5077068;28;20047;-74
2023/01/04 11:55:48;;;;;;;5.25;3.25;;;11.50;99.90;;;;;;5067946;28;20059;-73
2023/01/04 11:58:16;;;;;;;7.07;3.60;;;11.60;99.90;;;;;;5066814;28;20044;-74
2023/01/04 12:00:56;;;;;;;4.38;2.92;;;11.60;99.90;;;;;;5066003;28;20390;-73
2023/01/04 12:03:29;;;;;;;5.72;3.03;;;11.60;99.90;;;;;;5063477;28;20075;-73
2023/01/04 12:05:56;;;;;;;6.07;2.80;;;11.60;99.90;;;;;;5060077;28;20138;-75
2023/01/04 12:08:32;;;;;;;4.68;2.70;;;11.60;99.90;;;;;;5070304;28;20040;-75
2023/01/04 12:11:04;;;;;;;4.07;2.50;;;11.60;99.90;;;;;;5085367;28;20066;-73
2023/01/04 12:13:32;;;;;;;4.95;2.50;;;11.70;99.90;;;;;;5070531;28;20087;-73
2023/01/04 12:16:25;;;;;;;3.08;2.40;;;11.70;99.90;;;;;;5103788;28;20431;-73
2023/01/04 12:18:51;;;;;;;4.82;2.65;;;11.70;99.90;;;;;;5068681;28;20040;-73
2023/01/04 12:21:25;;;;;;;4.30;2.58;;;11.70;99.90;;;;;;5086526;28;20127;-74
2023/01/04 12:23:52;;;;;;;4.80;3.10;;;11.70;99.90;;;;;;5087473;28;20040;-72
2023/01/04 12:31:31;;;;;;;3.33;2.40;;;11.80;99.90;;;;;;5083026;22;20111;-72
2023/01/04 12:34:22;;;;;;;5.38;2.63;;;11.80;99.90;;;;;;5042397;28;20068;-72
2023/01/04 12:36:56;;;;;;;6.15;2.63;;;11.80;99.90;;;;;;5045787;28;20104;-71
2023/01/04 12:39:22;;;;;;;3.38;2.17;;;11.80;99.90;;;;;;5047074;28;20127;-71
2023/01/04 12:41:59;;;;;;;3.30;1.60;;;11.80;99.90;;;;;;5046664;28;20137;-71
2023/01/04 12:44:42;;;;;;;1.92;1.33;;;11.80;99.90;;;;;;5044396;28;20403;-73
2023/01/04 12:50:12;;;;;;;3.03;1.83;;;11.80;99.90;;;;;;5049054;28;20072;-74
2023/01/04 12:52:42;;;;;;;;;;;11.80;99.90;;;;;;5045736;28;20053;-77
2023/01/04 12:55:24;;;;;;;1.83;0.95;;;11.80;99.90;;;;;;5035505;28;19932;-75
2023/01/04 12:57:49;;;;;;;2.75;0.90;;;11.80;99.90;;;;;;5044551;28;20041;-76
2023/01/04 13:00:16;;;;;;;4.72;1.23;;;11.80;99.90;;;;;;5047548;28;20052;-73
2023/01/04 13:02:46;;;;;;;3.72;1.50;;;11.80;99.90;;;;;;5042792;28;20384;-73
2023/01/04 13:05:18;;;;;;;3.38;1.30;;;11.80;99.90;;;;;;5045064;28;20597;-72
2023/01/04 13:07:56;;;;;;;2.55;1.40;;;11.80;99.90;;;;;;5044372;28;20048;-73
2023/01/04 13:10:34;;;;;;;2.70;1.40;;;11.80;99.90;;;;;;5047131;28;20558;-73
2023/01/04 13:13:42;;;;;;;2.15;1.35;;;11.80;99.90;;;;;;5045459;28;20053;-73
2023/01/04 13:16:44;;;;;;;4.93;2.00;;;11.80;99.90;;;;;;5037915;28;20056;-73
2023/01/04 13:19:24;;;;;;;6.22;2.10;;;11.80;99.90;;;;;;5046981;28;20103;-73
2023/01/04 13:21:51;;;;;;;4.95;2.03;;;11.90;99.90;;;;;;5048046;28;20127;-72
2023/01/04 13:24:29;;;;;;;7.47;2.40;;;11.90;99.90;;;;;;5048731;28;20173;-72
2023/01/04 13:26:56;;;;;;;8.13;2.63;;;11.90;99.90;;;;;;5041729;28;20048;-72
2023/01/04 13:29:30;;;;;;;10.32;2.50;;;11.90;99.90;;;;;;5046207;28;20041;-72
2023/01/04 13:32:04;;;;;;;11.27;2.70;;;12.00;99.90;;;;;;5047647;28;20718;-72
2023/01/04 13:34:33;;;;;;;10.90;2.72;;;11.90;99.90;;;;;;5046346;28;20048;-72
2023/01/04 13:37:14;;;;;;;12.50;2.92;;;12.00;99.90;;;;;;5043253;28;20081;-72
2023/01/04 13:39:44;;;;;;;11.82;2.70;;;12.00;99.90;;;;;;5047564;28;20056;-73
2023/01/04 13:42:19;;;;;;;14.27;3.20;;;12.00;99.90;;;;;;5043275;28;20049;-72
2023/01/04 13:45:00;;;;;;;10.65;2.95;;;12.00;99.90;;;;;;5045996;28;20059;-72
2023/01/04 13:47:28;;;;;;;14.60;3.53;;;12.00;99.90;;;;;;5047300;28;20040;-72
2023/01/04 13:49:54;;;;;;;14.18;3.35;;;12.00;99.90;;;;;;5043507;28;20476;-73
2023/01/04 13:52:24;;;;;;;16.52;3.45;;;12.00;99.90;;;;;;5048649;28;20103;-73
2023/01/04 13:54:50;;;;;;;13.05;3.55;;;12.00;99.90;;;;;;5048520;28;20049;-72
2023/01/04 13:57:20;;;;;;;14.23;3.40;;;12.10;99.90;;;;;;5042022;28;20124;-73
2023/01/04 13:59:50;;;;;;;16.92;3.90;;;12.10;99.90;;;;;;5048968;28;20051;-73
2023/01/04 14:02:18;;;;;;;15.70;4.03;;;12.10;99.90;;;;;;5046273;28;20041;-73
2023/01/04 14:04:46;;;;;;;13.10;3.22;;;12.20;99.90;;;;;;5046985;28;20523;-72
2023/01/04 14:07:19;;;;;;;14.23;3.22;;;12.10;99.90;;;;;;5040141;28;20048;-72
2023/01/04 14:09:49;;;;;;;15.43;3.97;;;12.20;99.90;;;;;;5046903;28;20049;-74